sensor_id;sensor_type;location;lat;lon;timestamp;P1;durP1;ratioP1;P2;durP2;ratioP2
22191;SDS011;11261;52.456;10.850;2024-01-07T00:02:00;6.78;;;4.05;;
22191;SDS011;11261;52.456;10.850;2024-01-07T00:04:28;9.32;;;6.05;;
22191;SDS011;11261;52.456;10.850;2024-01-07T00:06:57;9.07;;;5.83;;
22191;SDS011;11261;52.456;10.850;2024-01-07T00:09:26;8.43;;;4.65;;
22191;SDS011;11261;52.456;10.850;2024-01-07T00:11:54;9.75;;;5.60;;
22191;SDS011;11261;52.456;10.850;2024-01-07T00:14:24;7.65;;;4.32;;
22191;SDS011;11261;52.456;10.850;2024-01-07T00:16:53;8.67;;;4.30;;
22191;SDS011;11261;52.456;10.850;2024-01-07T00:19:21;7.32;;;4.85;;
22191;SDS011;11261;52.456;10.850;2024-01-07T00:21:50;8.60;;;4.37;;
22191;SDS011;11261;52.456;10.850;2024-01-07T00:24:19;7.17;;;4.60;;
22191;SDS011;11261;52.456;10.850;2024-01-07T00:26:48;11.32;;;5.03;;
22191;SDS011;11261;52.456;10.850;2024-01-07T00:29:16;8.60;;;4.07;;
22191;SDS011;11261;52.456;10.850;2024-01-07T00:31:45;8.67;;;5.03;;
22191;SDS011;11261;52.456;10.850;2024-01-07T00:34:14;7.65;;;4.28;;
22191;SDS011;11261;52.456;10.850;2024-01-07T00:36:43;12.68;;;4.93;;
22191;SDS011;11261;52.456;10.850;2024-01-07T00:39:11;10.68;;;4.55;;
22191;SDS011;11261;52.456;10.850;2024-01-07T00:41:39;8.25;;;5.38;;
22191;SDS011;11261;52.456;10.850;2024-01-07T00:44:08;10.23;;;5.93;;
22191;SDS011;11261;52.456;10.850;2024-01-07T00:46:36;6.27;;;2.80;;
22191;SDS011;11261;52.456;10.850;2024-01-07T00:49:07;4.97;;;2.67;;
22191;SDS011;11261;52.456;10.850;2024-01-07T00:51:36;7.32;;;4.05;;
22191;SDS011;11261;52.456;10.850;2024-01-07T00:54:04;11.90;;;6.33;;
22191;SDS011;11261;52.456;10.850;2024-01-07T00:56:32;10.50;;;5.10;;
22191;SDS011;11261;52.456;10.850;2024-01-07T00:59:01;5.45;;;3.35;;
22191;SDS011;11261;52.456;10.850;2024-01-07T01:01:29;4.32;;;2.00;;
22191;SDS011;11261;52.456;10.850;2024-01-07T01:03:58;10.07;;;4.93;;
22191;SDS011;11261;52.456;10.850;2024-01-07T01:06:28;10.38;;;4.90;;
22191;SDS011;11261;52.456;10.850;2024-01-07T01:08:57;7.30;;;4.07;;
22191;SDS011;11261;52.456;10.850;2024-01-07T01:11:25;5.50;;;2.60;;
22191;SDS011;11261;52.456;10.850;2024-01-07T01:13:54;8.77;;;5.30;;
22191;SDS011;11261;52.456;10.850;2024-01-07T01:16:23;6.65;;;3.90;;
22191;SDS011;11261;52.456;10.850;2024-01-07T01:18:51;9.35;;;4.20;;
22191;SDS011;11261;52.456;10.850;2024-01-07T01:21:20;7.30;;;3.58;;
22191;SDS011;11261;52.456;10.850;2024-01-07T01:23:50;13.30;;;4.68;;
22191;SDS011;11261;52.456;10.850;2024-01-07T01:26:19;9.40;;;4.60;;
22191;SDS011;11261;52.456;10.850;2024-01-07T01:28:47;7.20;;;4.55;;
22191;SDS011;11261;52.456;10.850;2024-01-07T01:31:16;10.17;;;4.00;;
22191;SDS011;11261;52.456;10.850;2024-01-07T01:33:45;5.38;;;2.95;;
22191;SDS011;11261;52.456;10.850;2024-01-07T01:36:14;6.40;;;3.60;;
22191;SDS011;11261;52.456;10.850;2024-01-07T01:38:42;7.18;;;3.80;;
22191;SDS011;11261;52.456;10.850;2024-01-07T01:41:12;7.75;;;3.60;;
22191;SDS011;11261;52.456;10.850;2024-01-07T01:43:40;6.70;;;4.00;;
22191;SDS011;11261;52.456;10.850;2024-01-07T01:46:09;5.70;;;3.42;;
22191;SDS011;11261;52.456;10.850;2024-01-07T01:48:38;8.63;;;3.28;;
22191;SDS011;11261;52.456;10.850;2024-01-07T01:51:07;6.68;;;2.97;;
22191;SDS011;11261;52.456;10.850;2024-01-07T01:53:36;5.25;;;2.92;;
22191;SDS011;11261;52.456;10.850;2024-01-07T01:56:06;4.93;;;2.38;;
22191;SDS011;11261;52.456;10.850;2024-01-07T01:58:36;5.93;;;3.00;;
22191;SDS011;11261;52.456;10.850;2024-01-07T02:01:04;4.17;;;2.77;;
22191;SDS011;11261;52.456;10.850;2024-01-07T02:03:33;6.10;;;2.72;;
22191;SDS011;11261;52.456;10.850;2024-01-07T02:06:02;6.25;;;3.42;;
22191;SDS011;11261;52.456;10.850;2024-01-07T02:08:31;3.47;;;1.48;;
22191;SDS011;11261;52.456;10.850;2024-01-07T02:11:13;3.38;;;2.10;;
22191;SDS011;11261;52.456;10.850;2024-01-07T02:13:44;4.65;;;2.85;;
22191;SDS011;11261;52.456;10.850;2024-01-07T02:16:13;5.07;;;2.40;;
22191;SDS011;11261;52.456;10.850;2024-01-07T02:18:43;6.90;;;3.00;;
22191;SDS011;11261;52.456;10.850;2024-01-07T02:21:13;6.25;;;2.75;;
22191;SDS011;11261;52.456;10.850;2024-01-07T02:23:42;5.78;;;2.60;;
22191;SDS011;11261;52.456;10.850;2024-01-07T02:26:12;3.78;;;2.40;;
22191;SDS011;11261;52.456;10.850;2024-01-07T02:28:40;5.28;;;2.63;;
22191;SDS011;11261;52.456;10.850;2024-01-07T02:31:09;3.60;;;2.60;;
22191;SDS011;11261;52.456;10.850;2024-01-07T02:33:37;4.60;;;1.77;;
22191;SDS011;11261;52.456;10.850;2024-01-07T02:36:06;5.78;;;2.17;;
22191;SDS011;11261;52.456;10.850;2024-01-07T02:38:35;3.50;;;1.65;;
22191;SDS011;11261;52.456;10.850;2024-01-07T02:41:04;1.83;;;1.57;;
22191;SDS011;11261;52.456;10.850;2024-01-07T02:43:34;4.15;;;1.77;;
22191;SDS011;11261;52.456;10.850;2024-01-07T02:46:03;3.83;;;2.00;;
22191;SDS011;11261;52.456;10.850;2024-01-07T02:48:31;4.53;;;1.80;;
22191;SDS011;11261;52.456;10.850;2024-01-07T02:51:00;3.78;;;1.88;;
22191;SDS011;11261;52.456;10.850;2024-01-07T02:53:31;2.03;;;1.37;;
22191;SDS011;11261;52.456;10.850;2024-01-07T02:56:00;2.63;;;1.50;;
22191;SDS011;11261;52.456;10.850;2024-01-07T02:58:28;4.25;;;2.05;;
22191;SDS011;11261;52.456;10.850;2024-01-07T03:00:58;4.25;;;2.20;;
22191;SDS011;11261;52.456;10.850;2024-01-07T03:03:27;3.80;;;1.77;;
22191;SDS011;11261;52.456;10.850;2024-01-07T03:05:55;1.45;;;1.05;;
22191;SDS011;11261;52.456;10.850;2024-01-07T03:08:24;2.93;;;1.90;;
22191;SDS011;11261;52.456;10.850;2024-01-07T03:10:52;3.87;;;2.17;;
22191;SDS011;11261;52.456;10.850;2024-01-07T03:13:20;4.43;;;1.63;;
22191;SDS011;11261;52.456;10.850;2024-01-07T03:15:49;2.93;;;2.03;;
22191;SDS011;11261;52.456;10.850;2024-01-07T03:18:19;4.78;;;2.03;;
22191;SDS011;11261;52.456;10.850;2024-01-07T03:20:48;2.27;;;1.50;;
22191;SDS011;11261;52.456;10.850;2024-01-07T03:23:17;3.27;;;1.97;;
22191;SDS011;11261;52.456;10.850;2024-01-07T03:25:46;6.20;;;1.90;;
22191;SDS011;11261;52.456;10.850;2024-01-07T03:28:14;3.23;;;2.30;;
22191;SDS011;11261;52.456;10.850;2024-01-07T03:30:43;4.83;;;1.07;;
22191;SDS011;11261;52.456;10.850;2024-01-07T03:33:12;3.08;;;1.30;;
22191;SDS011;11261;52.456;10.850;2024-01-07T03:35:42;3.30;;;1.90;;
22191;SDS011;11261;52.456;10.850;2024-01-07T03:38:12;2.22;;;1.70;;
22191;SDS011;11261;52.456;10.850;2024-01-07T03:40:41;2.70;;;1.48;;
22191;SDS011;11261;52.456;10.850;2024-01-07T03:43:09;3.00;;;1.88;;
22191;SDS011;11261;52.456;10.850;2024-01-07T03:45:38;2.85;;;2.03;;
22191;SDS011;11261;52.456;10.850;2024-01-07T03:48:06;2.42;;;1.33;;
22191;SDS011;11261;52.456;10.850;2024-01-07T03:50:35;4.40;;;2.47;;
22191;SDS011;11261;52.456;10.850;2024-01-07T03:53:05;2.90;;;0.88;;
22191;SDS011;11261;52.456;10.850;2024-01-07T03:55:34;4.13;;;1.80;;
22191;SDS011;11261;52.456;10.850;2024-01-07T03:58:02;4.10;;;2.27;;
22191;SDS011;11261;52.456;10.850;2024-01-07T04:00:32;2.07;;;1.60;;
22191;SDS011;11261;52.456;10.850;2024-01-07T04:03:01;5.13;;;1.70;;
22191;SDS011;11261;52.456;10.850;2024-01-07T04:05:29;3.03;;;1.70;;
22191;SDS011;11261;52.456;10.850;2024-01-07T04:08:00;3.43;;;2.13;;
22191;SDS011;11261;52.456;10.850;2024-01-07T04:10:30;2.50;;;1.60;;
22191;SDS011;11261;52.456;10.850;2024-01-07T04:12:58;3.40;;;2.20;;
22191;SDS011;11261;52.456;10.850;2024-01-07T04:15:27;2.90;;;1.50;;
22191;SDS011;11261;52.456;10.850;2024-01-07T04:17:55;4.03;;;2.53;;
22191;SDS011;11261;52.456;10.850;2024-01-07T04:20:24;5.73;;;2.33;;
22191;SDS011;11261;52.456;10.850;2024-01-07T04:22:52;4.30;;;1.30;;
22191;SDS011;11261;52.456;10.850;2024-01-07T04:25:21;6.87;;;1.90;;
22191;SDS011;11261;52.456;10.850;2024-01-07T04:27:51;2.70;;;1.93;;
22191;SDS011;11261;52.456;10.850;2024-01-07T04:30:19;4.50;;;2.10;;
22191;SDS011;11261;52.456;10.850;2024-01-07T04:32:48;2.83;;;2.00;;
22191;SDS011;11261;52.456;10.850;2024-01-07T04:35:17;4.57;;;2.40;;
22191;SDS011;11261;52.456;10.850;2024-01-07T04:37:46;3.33;;;2.10;;
22191;SDS011;11261;52.456;10.850;2024-01-07T04:40:14;3.90;;;1.60;;
22191;SDS011;11261;52.456;10.850;2024-01-07T04:42:43;3.43;;;2.17;;
22191;SDS011;11261;52.456;10.850;2024-01-07T04:45:13;3.10;;;2.10;;
22191;SDS011;11261;52.456;10.850;2024-01-07T04:47:42;3.33;;;2.03;;
22191;SDS011;11261;52.456;10.850;2024-01-07T04:50:11;5.07;;;1.93;;
22191;SDS011;11261;52.456;10.850;2024-01-07T04:52:41;1.57;;;1.00;;
22191;SDS011;11261;52.456;10.850;2024-01-07T04:55:10;4.30;;;2.03;;
22191;SDS011;11261;52.456;10.850;2024-01-07T04:57:38;2.87;;;1.80;;
22191;SDS011;11261;52.456;10.850;2024-01-07T05:00:08;6.27;;;2.13;;
22191;SDS011;11261;52.456;10.850;2024-01-07T05:02:38;6.30;;;1.90;;
22191;SDS011;11261;52.456;10.850;2024-01-07T05:05:07;4.30;;;2.07;;
22191;SDS011;11261;52.456;10.850;2024-01-07T05:07:36;6.37;;;1.53;;
22191;SDS011;11261;52.456;10.850;2024-01-07T05:10:06;2.87;;;2.10;;
22191;SDS011;11261;52.456;10.850;2024-01-07T05:12:35;1.57;;;1.17;;
22191;SDS011;11261;52.456;10.850;2024-01-07T05:15:04;4.40;;;1.90;;
22191;SDS011;11261;52.456;10.850;2024-01-07T05:17:34;3.07;;;2.20;;
22191;SDS011;11261;52.456;10.850;2024-01-07T05:20:05;4.97;;;2.30;;
22191;SDS011;11261;52.456;10.850;2024-01-07T05:22:34;3.30;;;1.60;;
22191;SDS011;11261;52.456;10.850;2024-01-07T05:25:03;4.47;;;1.65;;
22191;SDS011;11261;52.456;10.850;2024-01-07T05:27:32;2.67;;;1.93;;
22191;SDS011;11261;52.456;10.850;2024-01-07T05:30:01;3.03;;;1.77;;
22191;SDS011;11261;52.456;10.850;2024-01-07T05:32:30;3.70;;;2.30;;
22191;SDS011;11261;52.456;10.850;2024-01-07T05:34:59;4.20;;;2.93;;
22191;SDS011;11261;52.456;10.850;2024-01-07T05:37:29;4.33;;;2.80;;
22191;SDS011;11261;52.456;10.850;2024-01-07T05:39:58;4.80;;;2.70;;
22191;SDS011;11261;52.456;10.850;2024-01-07T05:42:27;4.03;;;2.33;;
22191;SDS011;11261;52.456;10.850;2024-01-07T05:44:56;4.07;;;2.30;;
22191;SDS011;11261;52.456;10.850;2024-01-07T05:47:24;4.63;;;2.27;;
22191;SDS011;11261;52.456;10.850;2024-01-07T05:49:53;4.30;;;2.33;;
22191;SDS011;11261;52.456;10.850;2024-01-07T05:52:22;5.03;;;2.63;;
22191;SDS011;11261;52.456;10.850;2024-01-07T05:54:52;5.57;;;1.90;;
22191;SDS011;11261;52.456;10.850;2024-01-07T05:57:21;3.83;;;2.10;;
22191;SDS011;11261;52.456;10.850;2024-01-07T05:59:49;5.50;;;2.30;;
22191;SDS011;11261;52.456;10.850;2024-01-07T06:02:20;3.13;;;2.10;;
22191;SDS011;11261;52.456;10.850;2024-01-07T06:04:49;5.00;;;2.20;;
22191;SDS011;11261;52.456;10.850;2024-01-07T06:07:21;5.50;;;2.90;;
22191;SDS011;11261;52.456;10.850;2024-01-07T06:09:50;2.77;;;1.50;;
22191;SDS011;11261;52.456;10.850;2024-01-07T06:12:20;4.70;;;2.67;;
22191;SDS011;11261;52.456;10.850;2024-01-07T06:14:49;6.33;;;2.77;;
22191;SDS011;11261;52.456;10.850;2024-01-07T06:17:17;4.83;;;2.43;;
22191;SDS011;11261;52.456;10.850;2024-01-07T06:19:46;3.63;;;1.40;;
22191;SDS011;11261;52.456;10.850;2024-01-07T06:22:15;8.03;;;2.57;;
22191;SDS011;11261;52.456;10.850;2024-01-07T06:24:43;6.03;;;3.30;;
22191;SDS011;11261;52.456;10.850;2024-01-07T06:27:12;6.17;;;2.60;;
22191;SDS011;11261;52.456;10.850;2024-01-07T06:29:42;4.80;;;2.20;;
22191;SDS011;11261;52.456;10.850;2024-01-07T06:32:11;5.23;;;2.67;;
22191;SDS011;11261;52.456;10.850;2024-01-07T06:34:40;5.70;;;2.50;;
22191;SDS011;11261;52.456;10.850;2024-01-07T06:37:09;3.90;;;2.67;;
22191;SDS011;11261;52.456;10.850;2024-01-07T06:39:38;3.77;;;2.30;;
22191;SDS011;11261;52.456;10.850;2024-01-07T06:42:07;3.73;;;2.50;;
22191;SDS011;11261;52.456;10.850;2024-01-07T06:44:36;3.67;;;1.80;;
22191;SDS011;11261;52.456;10.850;2024-01-07T06:47:06;4.67;;;3.23;;
22191;SDS011;11261;52.456;10.850;2024-01-07T06:49:35;5.80;;;3.47;;
22191;SDS011;11261;52.456;10.850;2024-01-07T06:52:05;5.60;;;3.80;;
22191;SDS011;11261;52.456;10.850;2024-01-07T06:54:34;6.03;;;3.60;;
22191;SDS011;11261;52.456;10.850;2024-01-07T06:57:03;3.67;;;2.77;;
22191;SDS011;11261;52.456;10.850;2024-01-07T06:59:32;3.00;;;1.67;;
22191;SDS011;11261;52.456;10.850;2024-01-07T07:02:01;2.13;;;1.33;;
22191;SDS011;11261;52.456;10.850;2024-01-07T07:04:31;1.80;;;1.57;;
22191;SDS011;11261;52.456;10.850;2024-01-07T07:07:00;4.97;;;2.70;;
22191;SDS011;11261;52.456;10.850;2024-01-07T07:09:29;3.93;;;2.30;;
22191;SDS011;11261;52.456;10.850;2024-01-07T07:11:58;4.53;;;2.03;;
22191;SDS011;11261;52.456;10.850;2024-01-07T07:14:27;3.00;;;1.73;;
22191;SDS011;11261;52.456;10.850;2024-01-07T07:16:55;4.45;;;2.42;;
22191;SDS011;11261;52.456;10.850;2024-01-07T07:19:24;2.43;;;1.80;;
22191;SDS011;11261;52.456;10.850;2024-01-07T07:21:54;4.67;;;2.70;;
22191;SDS011;11261;52.456;10.850;2024-01-07T07:24:23;1.10;;;0.83;;
22191;SDS011;11261;52.456;10.850;2024-01-07T07:26:52;3.03;;;1.77;;
22191;SDS011;11261;52.456;10.850;2024-01-07T07:29:20;4.17;;;2.40;;
22191;SDS011;11261;52.456;10.850;2024-01-07T07:31:49;6.37;;;3.10;;
22191;SDS011;11261;52.456;10.850;2024-01-07T07:34:18;3.63;;;2.50;;
22191;SDS011;11261;52.456;10.850;2024-01-07T07:36:47;3.40;;;2.13;;
22191;SDS011;11261;52.456;10.850;2024-01-07T07:39:17;2.50;;;1.98;;
22191;SDS011;11261;52.456;10.850;2024-01-07T07:41:46;3.10;;;1.80;;
22191;SDS011;11261;52.456;10.850;2024-01-07T07:44:16;1.57;;;1.27;;
22191;SDS011;11261;52.456;10.850;2024-01-07T07:46:45;3.70;;;1.83;;
22191;SDS011;11261;52.456;10.850;2024-01-07T07:49:14;4.15;;;2.40;;
22191;SDS011;11261;52.456;10.850;2024-01-07T07:51:43;4.50;;;2.17;;
22191;SDS011;11261;52.456;10.850;2024-01-07T07:54:12;4.83;;;2.43;;
22191;SDS011;11261;52.456;10.850;2024-01-07T07:56:42;3.00;;;1.83;;
22191;SDS011;11261;52.456;10.850;2024-01-07T07:59:11;3.90;;;1.03;;
22191;SDS011;11261;52.456;10.850;2024-01-07T08:01:40;3.73;;;2.20;;
22191;SDS011;11261;52.456;10.850;2024-01-07T08:04:09;6.10;;;2.10;;
22191;SDS011;11261;52.456;10.850;2024-01-07T08:06:38;3.13;;;1.57;;
22191;SDS011;11261;52.456;10.850;2024-01-07T08:09:06;2.47;;;1.53;;
22191;SDS011;11261;52.456;10.850;2024-01-07T08:11:35;5.30;;;2.53;;
22191;SDS011;11261;52.456;10.850;2024-01-07T08:14:07;4.87;;;2.07;;
22191;SDS011;11261;52.456;10.850;2024-01-07T08:16:36;4.60;;;1.63;;
22191;SDS011;11261;52.456;10.850;2024-01-07T08:19:04;2.87;;;2.03;;
22191;SDS011;11261;52.456;10.850;2024-01-07T08:21:33;5.20;;;2.20;;
22191;SDS011;11261;52.456;10.850;2024-01-07T08:24:02;8.47;;;3.27;;
22191;SDS011;11261;52.456;10.850;2024-01-07T08:26:32;2.53;;;1.40;;
22191;SDS011;11261;52.456;10.850;2024-01-07T08:29:00;3.10;;;1.87;;
22191;SDS011;11261;52.456;10.850;2024-01-07T08:31:31;4.40;;;2.25;;
22191;SDS011;11261;52.456;10.850;2024-01-07T08:34:00;3.20;;;1.85;;
22191;SDS011;11261;52.456;10.850;2024-01-07T08:36:29;3.90;;;2.77;;
22191;SDS011;11261;52.456;10.850;2024-01-07T08:38:58;2.53;;;1.60;;
22191;SDS011;11261;52.456;10.850;2024-01-07T08:41:27;2.80;;;1.90;;
22191;SDS011;11261;52.456;10.850;2024-01-07T08:43:56;1.23;;;1.13;;
22191;SDS011;11261;52.456;10.850;2024-01-07T08:46:25;3.27;;;1.97;;
22191;SDS011;11261;52.456;10.850;2024-01-07T08:48:55;1.27;;;1.10;;
22191;SDS011;11261;52.456;10.850;2024-01-07T08:51:24;2.17;;;1.10;;
22191;SDS011;11261;52.456;10.850;2024-01-07T08:53:53;0.97;;;0.67;;
22191;SDS011;11261;52.456;10.850;2024-01-07T08:56:24;1.80;;;1.27;;
22191;SDS011;11261;52.456;10.850;2024-01-07T08:58:52;3.07;;;1.43;;
22191;SDS011;11261;52.456;10.850;2024-01-07T09:01:21;4.40;;;2.17;;
22191;SDS011;11261;52.456;10.850;2024-01-07T09:03:51;7.53;;;1.50;;
22191;SDS011;11261;52.456;10.850;2024-01-07T09:06:21;3.33;;;2.10;;
22191;SDS011;11261;52.456;10.850;2024-01-07T09:08:51;2.25;;;1.58;;
22191;SDS011;11261;52.456;10.850;2024-01-07T09:11:19;3.23;;;2.00;;
22191;SDS011;11261;52.456;10.850;2024-01-07T09:13:48;3.10;;;1.70;;
22191;SDS011;11261;52.456;10.850;2024-01-07T09:16:17;2.50;;;1.60;;
22191;SDS011;11261;52.456;10.850;2024-01-07T09:18:46;3.13;;;1.80;;
22191;SDS011;11261;52.456;10.850;2024-01-07T09:21:15;5.33;;;2.40;;
22191;SDS011;11261;52.456;10.850;2024-01-07T09:23:45;3.83;;;2.13;;
22191;SDS011;11261;52.456;10.850;2024-01-07T09:26:14;7.38;;;2.00;;
22191;SDS011;11261;52.456;10.850;2024-01-07T09:28:43;4.00;;;1.23;;
22191;SDS011;11261;52.456;10.850;2024-01-07T09:31:12;4.93;;;2.00;;
22191;SDS011;11261;52.456;10.850;2024-01-07T09:33:42;15.73;;;1.40;;
22191;SDS011;11261;52.456;10.850;2024-01-07T09:36:11;3.80;;;1.75;;
22191;SDS011;11261;52.456;10.850;2024-01-07T09:38:56;3.13;;;1.60;;
22191;SDS011;11261;52.456;10.850;2024-01-07T09:41:25;1.95;;;1.30;;
22191;SDS011;11261;52.456;10.850;2024-01-07T09:43:54;1.63;;;1.47;;
22191;SDS011;11261;52.456;10.850;2024-01-07T09:46:24;1.70;;;0.93;;
22191;SDS011;11261;52.456;10.850;2024-01-07T09:48:52;1.80;;;0.93;;
22191;SDS011;11261;52.456;10.850;2024-01-07T09:51:22;6.03;;;1.98;;
22191;SDS011;11261;52.456;10.850;2024-01-07T09:53:51;3.08;;;2.25;;
22191;SDS011;11261;52.456;10.850;2024-01-07T09:56:25;2.47;;;1.63;;
22191;SDS011;11261;52.456;10.850;2024-01-07T09:58:57;8.63;;;2.10;;
22191;SDS011;11261;52.456;10.850;2024-01-07T10:01:26;1.90;;;1.47;;
22191;SDS011;11261;52.456;10.850;2024-01-07T10:03:55;5.07;;;1.63;;
22191;SDS011;11261;52.456;10.850;2024-01-07T10:06:25;3.03;;;1.53;;
22191;SDS011;11261;52.456;10.850;2024-01-07T10:08:54;4.47;;;1.52;;
22191;SDS011;11261;52.456;10.850;2024-01-07T10:11:22;2.80;;;2.00;;
22191;SDS011;11261;52.456;10.850;2024-01-07T10:13:52;3.22;;;1.17;;
22191;SDS011;11261;52.456;10.850;2024-01-07T10:16:22;3.13;;;1.80;;
22191;SDS011;11261;52.456;10.850;2024-01-07T10:18:50;4.25;;;1.92;;
22191;SDS011;11261;52.456;10.850;2024-01-07T10:21:19;5.17;;;1.67;;
22191;SDS011;11261;52.456;10.850;2024-01-07T10:23:48;4.00;;;1.48;;
22191;SDS011;11261;52.456;10.850;2024-01-07T10:26:16;4.43;;;2.08;;
22191;SDS011;11261;52.456;10.850;2024-01-07T10:28:57;4.60;;;1.77;;
22191;SDS011;11261;52.456;10.850;2024-01-07T10:31:26;3.22;;;1.55;;
22191;SDS011;11261;52.456;10.850;2024-01-07T10:33:56;4.30;;;1.85;;
22191;SDS011;11261;52.456;10.850;2024-01-07T10:36:25;2.65;;;1.60;;
22191;SDS011;11261;52.456;10.850;2024-01-07T10:38:54;2.95;;;1.65;;
22191;SDS011;11261;52.456;10.850;2024-01-07T10:41:23;2.97;;;2.00;;
22191;SDS011;11261;52.456;10.850;2024-01-07T10:43:52;4.37;;;1.90;;
22191;SDS011;11261;52.456;10.850;2024-01-07T10:46:23;3.50;;;1.60;;
22191;SDS011;11261;52.456;10.850;2024-01-07T10:48:54;4.82;;;1.90;;
22191;SDS011;11261;52.456;10.850;2024-01-07T10:51:23;2.87;;;1.50;;
22191;SDS011;11261;52.456;10.850;2024-01-07T10:53:53;2.75;;;2.05;;
22191;SDS011;11261;52.456;10.850;2024-01-07T10:56:22;3.10;;;1.33;;
22191;SDS011;11261;52.456;10.850;2024-01-07T10:58:51;3.08;;;1.63;;
22191;SDS011;11261;52.456;10.850;2024-01-07T11:01:22;2.33;;;1.50;;
22191;SDS011;11261;52.456;10.850;2024-01-07T11:03:55;2.65;;;1.48;;
22191;SDS011;11261;52.456;10.850;2024-01-07T11:06:27;3.03;;;1.40;;
22191;SDS011;11261;52.456;10.850;2024-01-07T11:08:58;2.23;;;1.87;;
22191;SDS011;11261;52.456;10.850;2024-01-07T11:11:35;3.45;;;1.48;;
22191;SDS011;11261;52.456;10.850;2024-01-07T11:16:52;5.55;;;2.30;;
22191;SDS011;11261;52.456;10.850;2024-01-07T11:19:21;4.63;;;1.92;;
22191;SDS011;11261;52.456;10.850;2024-01-07T11:21:50;2.35;;;1.45;;
22191;SDS011;11261;52.456;10.850;2024-01-07T11:24:37;3.65;;;2.22;;
22191;SDS011;11261;52.456;10.850;2024-01-07T11:27:08;6.43;;;1.90;;
22191;SDS011;11261;52.456;10.850;2024-01-07T11:29:36;4.60;;;2.05;;
22191;SDS011;11261;52.456;10.850;2024-01-07T11:32:07;3.80;;;1.90;;
22191;SDS011;11261;52.456;10.850;2024-01-07T11:34:39;4.40;;;1.58;;
22191;SDS011;11261;52.456;10.850;2024-01-07T11:37:09;2.33;;;1.73;;
22191;SDS011;11261;52.456;10.850;2024-01-07T11:39:39;3.33;;;1.95;;
22191;SDS011;11261;52.456;10.850;2024-01-07T11:42:10;2.55;;;1.30;;
22191;SDS011;11261;52.456;10.850;2024-01-07T11:44:44;6.75;;;2.22;;
22191;SDS011;11261;52.456;10.850;2024-01-07T11:47:15;2.92;;;1.98;;
22191;SDS011;11261;52.456;10.850;2024-01-07T11:49:44;2.67;;;1.55;;
22191;SDS011;11261;52.456;10.850;2024-01-07T11:52:12;6.43;;;2.53;;
22191;SDS011;11261;52.456;10.850;2024-01-07T11:54:41;4.95;;;2.80;;
22191;SDS011;11261;52.456;10.850;2024-01-07T11:57:10;3.97;;;2.27;;
22191;SDS011;11261;52.456;10.850;2024-01-07T11:59:39;4.07;;;2.03;;
22191;SDS011;11261;52.456;10.850;2024-01-07T12:02:10;3.25;;;2.40;;
22191;SDS011;11261;52.456;10.850;2024-01-07T12:04:42;3.85;;;1.90;;
22191;SDS011;11261;52.456;10.850;2024-01-07T12:07:11;4.00;;;2.38;;
22191;SDS011;11261;52.456;10.850;2024-01-07T12:09:41;6.43;;;1.70;;
22191;SDS011;11261;52.456;10.850;2024-01-07T12:12:10;4.45;;;2.22;;
22191;SDS011;11261;52.456;10.850;2024-01-07T12:14:38;2.50;;;1.80;;
22191;SDS011;11261;52.456;10.850;2024-01-07T12:17:08;6.75;;;2.15;;
22191;SDS011;11261;52.456;10.850;2024-01-07T12:19:39;2.10;;;1.90;;
22191;SDS011;11261;52.456;10.850;2024-01-07T12:22:11;1.83;;;1.58;;
22191;SDS011;11261;52.456;10.850;2024-01-07T12:24:40;3.67;;;1.67;;
22191;SDS011;11261;52.456;10.850;2024-01-07T12:27:09;2.05;;;1.77;;
22191;SDS011;11261;52.456;10.850;2024-01-07T12:29:40;4.38;;;1.77;;
22191;SDS011;11261;52.456;10.850;2024-01-07T12:32:09;3.78;;;2.25;;
22191;SDS011;11261;52.456;10.850;2024-01-07T12:34:38;5.30;;;1.90;;
22191;SDS011;11261;52.456;10.850;2024-01-07T12:37:13;4.53;;;2.30;;
22191;SDS011;11261;52.456;10.850;2024-01-07T12:39:43;4.00;;;2.15;;
22191;SDS011;11261;52.456;10.850;2024-01-07T12:42:11;4.40;;;2.28;;
22191;SDS011;11261;52.456;10.850;2024-01-07T12:44:40;4.13;;;2.25;;
22191;SDS011;11261;52.456;10.850;2024-01-07T12:47:09;5.32;;;2.58;;
22191;SDS011;11261;52.456;10.850;2024-01-07T12:49:38;6.50;;;2.75;;
22191;SDS011;11261;52.456;10.850;2024-01-07T12:52:06;5.82;;;2.17;;
22191;SDS011;11261;52.456;10.850;2024-01-07T12:54:37;3.70;;;2.15;;
22191;SDS011;11261;52.456;10.850;2024-01-07T12:57:06;2.75;;;2.05;;
22191;SDS011;11261;52.456;10.850;2024-01-07T12:59:35;2.83;;;1.50;;
22191;SDS011;11261;52.456;10.850;2024-01-07T13:02:04;2.50;;;1.95;;
22191;SDS011;11261;52.456;10.850;2024-01-07T13:04:33;1.23;;;1.05;;
22191;SDS011;11261;52.456;10.850;2024-01-07T13:07:02;3.92;;;1.48;;
22191;SDS011;11261;52.456;10.850;2024-01-07T13:09:31;0.63;;;0.63;;
22191;SDS011;11261;52.456;10.850;2024-01-07T13:12:02;3.97;;;2.15;;
22191;SDS011;11261;52.456;10.850;2024-01-07T13:14:30;6.72;;;2.50;;
22191;SDS011;11261;52.456;10.850;2024-01-07T13:16:59;1.17;;;0.82;;
22191;SDS011;11261;52.456;10.850;2024-01-07T13:19:28;5.07;;;1.80;;
22191;SDS011;11261;52.456;10.850;2024-01-07T13:21:57;3.92;;;2.20;;
22191;SDS011;11261;52.456;10.850;2024-01-07T13:24:26;2.88;;;2.00;;
22191;SDS011;11261;52.456;10.850;2024-01-07T13:26:55;3.67;;;1.70;;
22191;SDS011;11261;52.456;10.850;2024-01-07T13:29:26;4.53;;;1.60;;
22191;SDS011;11261;52.456;10.850;2024-01-07T13:31:55;3.20;;;1.40;;
22191;SDS011;11261;52.456;10.850;2024-01-07T13:34:24;4.82;;;1.80;;
22191;SDS011;11261;52.456;10.850;2024-01-07T13:36:53;2.00;;;0.70;;
22191;SDS011;11261;52.456;10.850;2024-01-07T13:39:22;1.33;;;1.23;;
22191;SDS011;11261;52.456;10.850;2024-01-07T13:41:51;1.58;;;0.80;;
22191;SDS011;11261;52.456;10.850;2024-01-07T13:44:20;1.67;;;1.15;;
22191;SDS011;11261;52.456;10.850;2024-01-07T13:46:50;2.45;;;1.42;;
22191;SDS011;11261;52.456;10.850;2024-01-07T13:49:20;1.73;;;1.08;;
22191;SDS011;11261;52.456;10.850;2024-01-07T13:51:49;1.23;;;1.13;;
22191;SDS011;11261;52.456;10.850;2024-01-07T13:54:18;3.47;;;1.02;;
22191;SDS011;11261;52.456;10.850;2024-01-07T13:56:46;0.52;;;0.47;;
22191;SDS011;11261;52.456;10.850;2024-01-07T13:59:17;1.50;;;1.35;;
22191;SDS011;11261;52.456;10.850;2024-01-07T14:01:46;4.32;;;1.90;;
22191;SDS011;11261;52.456;10.850;2024-01-07T14:04:16;5.18;;;1.95;;
22191;SDS011;11261;52.456;10.850;2024-01-07T14:06:46;3.08;;;2.00;;
22191;SDS011;11261;52.456;10.850;2024-01-07T14:09:16;2.33;;;1.30;;
22191;SDS011;11261;52.456;10.850;2024-01-07T14:11:45;2.42;;;1.02;;
22191;SDS011;11261;52.456;10.850;2024-01-07T14:14:13;1.95;;;1.40;;
22191;SDS011;11261;52.456;10.850;2024-01-07T14:16:42;1.10;;;0.73;;
22191;SDS011;11261;52.456;10.850;2024-01-07T14:19:11;2.35;;;1.30;;
22191;SDS011;11261;52.456;10.850;2024-01-07T14:21:43;2.47;;;1.40;;
22191;SDS011;11261;52.456;10.850;2024-01-07T14:24:11;1.50;;;1.08;;
22191;SDS011;11261;52.456;10.850;2024-01-07T14:26:40;7.40;;;2.28;;
22191;SDS011;11261;52.456;10.850;2024-01-07T14:29:09;3.97;;;2.15;;
22191;SDS011;11261;52.456;10.850;2024-01-07T14:31:43;1.13;;;1.00;;
22191;SDS011;11261;52.456;10.850;2024-01-07T14:34:13;4.88;;;1.10;;
22191;SDS011;11261;52.456;10.850;2024-01-07T14:36:43;0.80;;;0.80;;
22191;SDS011;11261;52.456;10.850;2024-01-07T14:39:12;2.50;;;1.80;;
22191;SDS011;11261;52.456;10.850;2024-01-07T14:41:41;0.77;;;0.68;;
22191;SDS011;11261;52.456;10.850;2024-01-07T14:44:10;1.25;;;1.02;;
22191;SDS011;11261;52.456;10.850;2024-01-07T14:46:41;7.25;;;1.02;;
22191;SDS011;11261;52.456;10.850;2024-01-07T14:49:10;1.92;;;0.95;;